sensor_id;sensor_type;location;lat;lon;timestamp;pressure;altitude;pressure_sealevel;temperature
9119;BMP180;4594;50.994;7.126;2023-05-10T00:00:21;99904.00;;;18.90
9119;BMP180;4594;50.994;7.126;2023-05-10T00:02:48;99901.00;;;18.90
9119;BMP180;4594;50.994;7.126;2023-05-10T00:05:14;99897.00;;;18.90
9119;BMP180;4594;50.994;7.126;2023-05-10T00:07:40;99907.00;;;18.90
9119;BMP180;4594;50.994;7.126;2023-05-10T00:10:06;99905.00;;;18.90
9119;BMP180;4594;50.994;7.126;2023-05-10T00:12:32;99884.00;;;18.90
9119;BMP180;4594;50.994;7.126;2023-05-10T00:14:57;99907.00;;;18.90
9119;BMP180;4594;50.994;7.126;2023-05-10T00:17:23;99887.00;;;18.90
9119;BMP180;4594;50.994;7.126;2023-05-10T00:19:49;99911.00;;;18.90
9119;BMP180;4594;50.994;7.126;2023-05-10T00:22:14;99909.00;;;18.90
9119;BMP180;4594;50.994;7.126;2023-05-10T00:24:40;99896.00;;;18.90
9119;BMP180;4594;50.994;7.126;2023-05-10T00:27:06;99903.00;;;18.90
9119;BMP180;4594;50.994;7.126;2023-05-10T00:29:31;99907.00;;;18.90
9119;BMP180;4594;50.994;7.126;2023-05-10T00:31:58;99899.00;;;18.90
9119;BMP180;4594;50.994;7.126;2023-05-10T00:34:24;99900.00;;;18.90
9119;BMP180;4594;50.994;7.126;2023-05-10T00:36:50;99904.00;;;18.90
9119;BMP180;4594;50.994;7.126;2023-05-10T00:39:15;99890.00;;;18.90
9119;BMP180;4594;50.994;7.126;2023-05-10T00:41:41;99895.00;;;19.00
9119;BMP180;4594;50.994;7.126;2023-05-10T00:44:07;99898.00;;;19.00
9119;BMP180;4594;50.994;7.126;2023-05-10T00:46:32;99885.00;;;19.00
9119;BMP180;4594;50.994;7.126;2023-05-10T00:48:58;99884.00;;;19.00
9119;BMP180;4594;50.994;7.126;2023-05-10T00:51:25;99896.00;;;19.00
9119;BMP180;4594;50.994;7.126;2023-05-10T00:53:51;99884.00;;;19.00
9119;BMP180;4594;50.994;7.126;2023-05-10T00:56:17;99891.00;;;19.00
9119;BMP180;4594;50.994;7.126;2023-05-10T00:58:43;99884.00;;;19.00
9119;BMP180;4594;50.994;7.126;2023-05-10T01:01:09;99889.00;;;19.00
9119;BMP180;4594;50.994;7.126;2023-05-10T01:03:36;99890.00;;;19.00
9119;BMP180;4594;50.994;7.126;2023-05-10T01:06:02;99886.00;;;19.00
9119;BMP180;4594;50.994;7.126;2023-05-10T01:08:29;99881.00;;;19.00
9119;BMP180;4594;50.994;7.126;2023-05-10T01:10:55;99879.00;;;19.00
9119;BMP180;4594;50.994;7.126;2023-05-10T01:13:37;99885.00;;;19.00
9119;BMP180;4594;50.994;7.126;2023-05-10T01:16:04;99897.00;;;19.00
9119;BMP180;4594;50.994;7.126;2023-05-10T01:18:34;99900.00;;;19.00
9119;BMP180;4594;50.994;7.126;2023-05-10T01:36:08;99883.00;;;19.00
9119;BMP180;4594;50.994;7.126;2023-05-10T01:38:50;99880.00;;;18.90
9119;BMP180;4594;50.994;7.126;2023-05-10T01:41:51;99891.00;;;18.90
9119;BMP180;4594;50.994;7.126;2023-05-10T01:44:35;99901.00;;;18.90
9119;BMP180;4594;50.994;7.126;2023-05-10T01:47:19;99900.00;;;18.90
9119;BMP180;4594;50.994;7.126;2023-05-10T01:49:53;99898.00;;;18.90
9119;BMP180;4594;50.994;7.126;2023-05-10T01:52:24;99891.00;;;19.00
9119;BMP180;4594;50.994;7.126;2023-05-10T01:55:01;99895.00;;;19.00
9119;BMP180;4594;50.994;7.126;2023-05-10T01:57:35;99895.00;;;19.00
9119;BMP180;4594;50.994;7.126;2023-05-10T02:00:03;99890.00;;;19.00
9119;BMP180;4594;50.994;7.126;2023-05-10T02:02:37;99881.00;;;19.00
9119;BMP180;4594;50.994;7.126;2023-05-10T02:05:05;99889.00;;;19.00
9119;BMP180;4594;50.994;7.126;2023-05-10T02:07:35;99897.00;;;19.00
9119;BMP180;4594;50.994;7.126;2023-05-10T02:10:04;99896.00;;;19.00
9119;BMP180;4594;50.994;7.126;2023-05-10T02:12:35;99894.00;;;19.00
9119;BMP180;4594;50.994;7.126;2023-05-10T02:15:04;99916.00;;;18.90
9119;BMP180;4594;50.994;7.126;2023-05-10T02:17:32;99893.00;;;18.90
9119;BMP180;4594;50.994;7.126;2023-05-10T02:20:00;99910.00;;;18.90
9119;BMP180;4594;50.994;7.126;2023-05-10T02:22:28;99915.00;;;18.90
9119;BMP180;4594;50.994;7.126;2023-05-10T02:24:57;99917.00;;;18.90
9119;BMP180;4594;50.994;7.126;2023-05-10T02:27:25;99915.00;;;18.90
9119;BMP180;4594;50.994;7.126;2023-05-10T02:29:54;99894.00;;;18.90
9119;BMP180;4594;50.994;7.126;2023-05-10T02:32:22;99900.00;;;18.90
9119;BMP180;4594;50.994;7.126;2023-05-10T02:34:49;99923.00;;;18.90
9119;BMP180;4594;50.994;7.126;2023-05-10T02:37:20;99898.00;;;18.90
9119;BMP180;4594;50.994;7.126;2023-05-10T02:39:49;99898.00;;;18.90
9119;BMP180;4594;50.994;7.126;2023-05-10T02:42:18;99933.00;;;18.90
9119;BMP180;4594;50.994;7.126;2023-05-10T02:44:50;99918.00;;;18.90
9119;BMP180;4594;50.994;7.126;2023-05-10T02:47:18;99923.00;;;18.90
9119;BMP180;4594;50.994;7.126;2023-05-10T02:49:44;99905.00;;;18.90
9119;BMP180;4594;50.994;7.126;2023-05-10T02:52:15;99918.00;;;18.90
9119;BMP180;4594;50.994;7.126;2023-05-10T02:54:45;99926.00;;;18.80
9119;BMP180;4594;50.994;7.126;2023-05-10T02:57:17;99916.00;;;18.80
9119;BMP180;4594;50.994;7.126;2023-05-10T02:59:46;99933.00;;;18.90
9119;BMP180;4594;50.994;7.126;2023-05-10T03:02:13;99941.00;;;18.90
9119;BMP180;4594;50.994;7.126;2023-05-10T03:04:38;99929.00;;;18.90
9119;BMP180;4594;50.994;7.126;2023-05-10T03:07:04;99915.00;;;18.80
9119;BMP180;4594;50.994;7.126;2023-05-10T03:09:31;99927.00;;;18.80
9119;BMP180;4594;50.994;7.126;2023-05-10T03:18:29;99942.00;;;18.80
9119;BMP180;4594;50.994;7.126;2023-05-10T03:21:02;99940.00;;;18.80
9119;BMP180;4594;50.994;7.126;2023-05-10T03:23:48;99936.00;;;18.80
9119;BMP180;4594;50.994;7.126;2023-05-10T03:26:22;99924.00;;;18.80
9119;BMP180;4594;50.994;7.126;2023-05-10T03:28:50;99939.00;;;18.80
9119;BMP180;4594;50.994;7.126;2023-05-10T03:31:17;99948.00;;;18.80
9119;BMP180;4594;50.994;7.126;2023-05-10T03:33:48;99954.00;;;18.80
9119;BMP180;4594;50.994;7.126;2023-05-10T03:36:14;99952.00;;;18.80
9119;BMP180;4594;50.994;7.126;2023-05-10T03:38:39;99958.00;;;18.80
9119;BMP180;4594;50.994;7.126;2023-05-10T03:41:05;99958.00;;;18.80
9119;BMP180;4594;50.994;7.126;2023-05-10T03:43:31;99933.00;;;18.80
9119;BMP180;4594;50.994;7.126;2023-05-10T03:45:57;99937.00;;;18.80
9119;BMP180;4594;50.994;7.126;2023-05-10T03:48:22;99954.00;;;18.80
9119;BMP180;4594;50.994;7.126;2023-05-10T03:50:48;99965.00;;;18.80
9119;BMP180;4594;50.994;7.126;2023-05-10T03:53:15;99951.00;;;18.90
9119;BMP180;4594;50.994;7.126;2023-05-10T03:55:41;99961.00;;;18.90
9119;BMP180;4594;50.994;7.126;2023-05-10T03:58:10;99943.00;;;18.90
9119;BMP180;4594;50.994;7.126;2023-05-10T04:00:36;99952.00;;;18.90
9119;BMP180;4594;50.994;7.126;2023-05-10T04:03:02;99965.00;;;18.90
9119;BMP180;4594;50.994;7.126;2023-05-10T04:05:28;99920.00;;;18.90
9119;BMP180;4594;50.994;7.126;2023-05-10T04:07:54;99968.00;;;18.90
9119;BMP180;4594;50.994;7.126;2023-05-10T04:10:20;99972.00;;;18.90
9119;BMP180;4594;50.994;7.126;2023-05-10T04:12:46;99958.00;;;18.90
9119;BMP180;4594;50.994;7.126;2023-05-10T04:15:12;99953.00;;;18.90
9119;BMP180;4594;50.994;7.126;2023-05-10T04:17:38;99947.00;;;18.90
9119;BMP180;4594;50.994;7.126;2023-05-10T04:20:04;99938.00;;;18.90
9119;BMP180;4594;50.994;7.126;2023-05-10T04:22:30;99951.00;;;19.00
9119;BMP180;4594;50.994;7.126;2023-05-10T04:24:57;99955.00;;;19.00
9119;BMP180;4594;50.994;7.126;2023-05-10T04:27:22;99964.00;;;19.00
9119;BMP180;4594;50.994;7.126;2023-05-10T04:29:48;99950.00;;;19.00
9119;BMP180;4594;50.994;7.126;2023-05-10T04:32:14;99941.00;;;19.00
9119;BMP180;4594;50.994;7.126;2023-05-10T04:34:41;99959.00;;;19.00
9119;BMP180;4594;50.994;7.126;2023-05-10T04:37:07;99965.00;;;19.00
9119;BMP180;4594;50.994;7.126;2023-05-10T04:39:33;99956.00;;;19.00
9119;BMP180;4594;50.994;7.126;2023-05-10T04:41:58;99950.00;;;19.00
9119;BMP180;4594;50.994;7.126;2023-05-10T04:44:24;99952.00;;;19.00
9119;BMP180;4594;50.994;7.126;2023-05-10T04:46:50;99974.00;;;19.00
9119;BMP180;4594;50.994;7.126;2023-05-10T04:49:15;99968.00;;;19.00
9119;BMP180;4594;50.994;7.126;2023-05-10T04:51:42;99964.00;;;19.00
9119;BMP180;4594;50.994;7.126;2023-05-10T04:54:07;99972.00;;;19.00
9119;BMP180;4594;50.994;7.126;2023-05-10T04:56:33;99973.00;;;19.00
9119;BMP180;4594;50.994;7.126;2023-05-10T04:58:59;99965.00;;;19.00
9119;BMP180;4594;50.994;7.126;2023-05-10T05:01:24;99962.00;;;19.00
9119;BMP180;4594;50.994;7.126;2023-05-10T05:03:50;99974.00;;;19.00
9119;BMP180;4594;50.994;7.126;2023-05-10T05:06:18;99987.00;;;19.00
9119;BMP180;4594;50.994;7.126;2023-05-10T05:08:44;99981.00;;;19.00
9119;BMP180;4594;50.994;7.126;2023-05-10T05:11:09;99992.00;;;19.00
9119;BMP180;4594;50.994;7.126;2023-05-10T05:13:35;99975.00;;;19.00
9119;BMP180;4594;50.994;7.126;2023-05-10T05:16:02;100002.00;;;19.00
9119;BMP180;4594;50.994;7.126;2023-05-10T05:18:28;99988.00;;;19.10
9119;BMP180;4594;50.994;7.126;2023-05-10T05:20:54;100005.00;;;19.10
9119;BMP180;4594;50.994;7.126;2023-05-10T05:23:20;99992.00;;;19.10
9119;BMP180;4594;50.994;7.126;2023-05-10T05:25:46;100005.00;;;19.10
9119;BMP180;4594;50.994;7.126;2023-05-10T05:28:12;100010.00;;;19.10
9119;BMP180;4594;50.994;7.126;2023-05-10T05:30:37;100009.00;;;19.10
9119;BMP180;4594;50.994;7.126;2023-05-10T05:33:03;100026.00;;;19.20
9119;BMP180;4594;50.994;7.126;2023-05-10T05:35:29;100023.00;;;19.20
9119;BMP180;4594;50.994;7.126;2023-05-10T05:37:55;100008.00;;;19.20
9119;BMP180;4594;50.994;7.126;2023-05-10T05:40:21;100019.00;;;19.20
9119;BMP180;4594;50.994;7.126;2023-05-10T05:42:47;100020.00;;;19.20
9119;BMP180;4594;50.994;7.126;2023-05-10T05:45:12;100018.00;;;19.20
9119;BMP180;4594;50.994;7.126;2023-05-10T05:47:39;100040.00;;;19.20
9119;BMP180;4594;50.994;7.126;2023-05-10T05:50:06;100017.00;;;19.20
9119;BMP180;4594;50.994;7.126;2023-05-10T05:52:31;100011.00;;;19.20
9119;BMP180;4594;50.994;7.126;2023-05-10T05:54:57;100037.00;;;19.30
9119;BMP180;4594;50.994;7.126;2023-05-10T05:57:23;100036.00;;;19.30
9119;BMP180;4594;50.994;7.126;2023-05-10T05:59:48;100043.00;;;19.30
9119;BMP180;4594;50.994;7.126;2023-05-10T06:02:14;100035.00;;;19.40
9119;BMP180;4594;50.994;7.126;2023-05-10T06:04:40;100043.00;;;19.40
9119;BMP180;4594;50.994;7.126;2023-05-10T06:07:05;100048.00;;;19.40
9119;BMP180;4594;50.994;7.126;2023-05-10T06:09:31;100038.00;;;19.40
9119;BMP180;4594;50.994;7.126;2023-05-10T06:11:56;100048.00;;;19.50
9119;BMP180;4594;50.994;7.126;2023-05-10T06:14:22;100039.00;;;19.50
9119;BMP180;4594;50.994;7.126;2023-05-10T06:16:48;100049.00;;;19.50
9119;BMP180;4594;50.994;7.126;2023-05-10T06:19:14;100060.00;;;19.60
9119;BMP180;4594;50.994;7.126;2023-05-10T06:21:39;100068.00;;;19.60
9119;BMP180;4594;50.994;7.126;2023-05-10T06:24:06;100054.00;;;19.60
9119;BMP180;4594;50.994;7.126;2023-05-10T06:26:32;100064.00;;;19.60
9119;BMP180;4594;50.994;7.126;2023-05-10T06:28:58;100070.00;;;19.60
9119;BMP180;4594;50.994;7.126;2023-05-10T06:31:24;100066.00;;;19.70
9119;BMP180;4594;50.994;7.126;2023-05-10T06:33:49;100054.00;;;19.70
9119;BMP180;4594;50.994;7.126;2023-05-10T06:36:15;100065.00;;;19.70
9119;BMP180;4594;50.994;7.126;2023-05-10T06:38:40;100058.00;;;19.70
9119;BMP180;4594;50.994;7.126;2023-05-10T06:41:06;100062.00;;;19.70
9119;BMP180;4594;50.994;7.126;2023-05-10T06:43:32;100083.00;;;19.70
9119;BMP180;4594;50.994;7.126;2023-05-10T06:45:57;100078.00;;;19.70
9119;BMP180;4594;50.994;7.126;2023-05-10T06:48:23;100075.00;;;19.80
9119;BMP180;4594;50.994;7.126;2023-05-10T06:50:49;100077.00;;;19.80
9119;BMP180;4594;50.994;7.126;2023-05-10T06:53:14;100075.00;;;19.80
9119;BMP180;4594;50.994;7.126;2023-05-10T06:55:41;100094.00;;;19.80
9119;BMP180;4594;50.994;7.126;2023-05-10T06:58:06;100081.00;;;19.70
9119;BMP180;4594;50.994;7.126;2023-05-10T07:00:32;100079.00;;;19.70
9119;BMP180;4594;50.994;7.126;2023-05-10T07:02:58;100086.00;;;19.70
9119;BMP180;4594;50.994;7.126;2023-05-10T07:05:24;100090.00;;;19.70
9119;BMP180;4594;50.994;7.126;2023-05-10T07:07:50;100106.00;;;19.70
9119;BMP180;4594;50.994;7.126;2023-05-10T07:10:16;100097.00;;;19.70
9119;BMP180;4594;50.994;7.126;2023-05-10T07:12:41;100098.00;;;19.70
9119;BMP180;4594;50.994;7.126;2023-05-10T07:15:08;100103.00;;;19.60
9119;BMP180;4594;50.994;7.126;2023-05-10T07:17:34;100098.00;;;19.60
9119;BMP180;4594;50.994;7.126;2023-05-10T07:20:00;100104.00;;;19.60
9119;BMP180;4594;50.994;7.126;2023-05-10T07:22:26;100094.00;;;19.60
9119;BMP180;4594;50.994;7.126;2023-05-10T07:24:51;100097.00;;;19.60
9119;BMP180;4594;50.994;7.126;2023-05-10T07:27:17;100103.00;;;19.60
9119;BMP180;4594;50.994;7.126;2023-05-10T07:29:43;100101.00;;;19.70
9119;BMP180;4594;50.994;7.126;2023-05-10T07:32:08;100110.00;;;19.70
9119;BMP180;4594;50.994;7.126;2023-05-10T07:34:34;100108.00;;;19.70
9119;BMP180;4594;50.994;7.126;2023-05-10T07:37:00;100093.00;;;19.70
9119;BMP180;4594;50.994;7.126;2023-05-10T07:39:27;100108.00;;;19.70
9119;BMP180;4594;50.994;7.126;2023-05-10T07:41:54;100107.00;;;19.70
9119;BMP180;4594;50.994;7.126;2023-05-10T07:44:19;100107.00;;;19.70
9119;BMP180;4594;50.994;7.126;2023-05-10T07:46:46;100118.00;;;19.80
9119;BMP180;4594;50.994;7.126;2023-05-10T07:49:13;100111.00;;;19.80
9119;BMP180;4594;50.994;7.126;2023-05-10T07:51:38;100113.00;;;19.80
9119;BMP180;4594;50.994;7.126;2023-05-10T07:54:04;100097.00;;;19.80
9119;BMP180;4594;50.994;7.126;2023-05-10T07:56:32;100112.00;;;19.80
9119;BMP180;4594;50.994;7.126;2023-05-10T07:58:59;100116.00;;;19.90
9119;BMP180;4594;50.994;7.126;2023-05-10T08:01:26;100124.00;;;19.90
9119;BMP180;4594;50.994;7.126;2023-05-10T08:03:52;100128.00;;;20.00
9119;BMP180;4594;50.994;7.126;2023-05-10T08:06:19;100130.00;;;20.10
9119;BMP180;4594;50.994;7.126;2023-05-10T08:08:47;100128.00;;;20.10
9119;BMP180;4594;50.994;7.126;2023-05-10T08:11:19;100130.00;;;20.20
9119;BMP180;4594;50.994;7.126;2023-05-10T08:13:47;100122.00;;;20.30
9119;BMP180;4594;50.994;7.126;2023-05-10T08:16:13;100115.00;;;20.30
9119;BMP180;4594;50.994;7.126;2023-05-10T08:18:40;100127.00;;;20.30
9119;BMP180;4594;50.994;7.126;2023-05-10T08:21:06;100122.00;;;20.30
9119;BMP180;4594;50.994;7.126;2023-05-10T08:23:32;100118.00;;;20.30
9119;BMP180;4594;50.994;7.126;2023-05-10T08:25:58;100118.00;;;20.40
9119;BMP180;4594;50.994;7.126;2023-05-10T08:28:24;100122.00;;;20.30
9119;BMP180;4594;50.994;7.126;2023-05-10T08:30:50;100128.00;;;20.40
9119;BMP180;4594;50.994;7.126;2023-05-10T08:33:18;100131.00;;;20.30
9119;BMP180;4594;50.994;7.126;2023-05-10T08:35:44;100135.00;;;20.40
9119;BMP180;4594;50.994;7.126;2023-05-10T08:38:10;100138.00;;;20.40
9119;BMP180;4594;50.994;7.126;2023-05-10T08:40:37;100136.00;;;20.40
9119;BMP180;4594;50.994;7.126;2023-05-10T08:43:09;100129.00;;;20.50
9119;BMP180;4594;50.994;7.126;2023-05-10T08:45:41;100147.00;;;20.50
9119;BMP180;4594;50.994;7.126;2023-05-10T08:48:09;100140.00;;;20.50
9119;BMP180;4594;50.994;7.126;2023-05-10T08:50:37;100143.00;;;20.60
9119;BMP180;4594;50.994;7.126;2023-05-10T08:53:09;100129.00;;;20.60
9119;BMP180;4594;50.994;7.126;2023-05-10T08:55:36;100144.00;;;20.70
9119;BMP180;4594;50.994;7.126;2023-05-10T08:58:07;100154.00;;;20.80
9119;BMP180;4594;50.994;7.126;2023-05-10T09:00:33;100153.00;;;20.80
9119;BMP180;4594;50.994;7.126;2023-05-10T09:03:02;100149.00;;;20.90
9119;BMP180;4594;50.994;7.126;2023-05-10T09:05:28;100141.00;;;21.00
9119;BMP180;4594;50.994;7.126;2023-05-10T09:07:53;100162.00;;;21.00
9119;BMP180;4594;50.994;7.126;2023-05-10T09:10:20;100155.00;;;21.10
9119;BMP180;4594;50.994;7.126;2023-05-10T09:12:46;100155.00;;;21.20
9119;BMP180;4594;50.994;7.126;2023-05-10T09:15:16;100166.00;;;21.30
9119;BMP180;4594;50.994;7.126;2023-05-10T09:17:45;100165.00;;;21.40
9119;BMP180;4594;50.994;7.126;2023-05-10T09:20:11;100155.00;;;21.40
9119;BMP180;4594;50.994;7.126;2023-05-10T09:22:37;100165.00;;;21.50
9119;BMP180;4594;50.994;7.126;2023-05-10T09:27:34;100176.00;;;21.40
9119;BMP180;4594;50.994;7.126;2023-05-10T09:30:00;100182.00;;;21.50
9119;BMP180;4594;50.994;7.126;2023-05-10T09:32:46;100174.00;;;21.40
9119;BMP180;4594;50.994;7.126;2023-05-10T09:35:16;100186.00;;;21.40
9119;BMP180;4594;50.994;7.126;2023-05-10T09:37:48;100194.00;;;21.40
9119;BMP180;4594;50.994;7.126;2023-05-10T09:40:20;100197.00;;;21.30
9119;BMP180;4594;50.994;7.126;2023-05-10T09:42:55;100190.00;;;21.30
9119;BMP180;4594;50.994;7.126;2023-05-10T09:45:22;100193.00;;;21.20
9119;BMP180;4594;50.994;7.126;2023-05-10T09:47:48;100184.00;;;21.20
9119;BMP180;4594;50.994;7.126;2023-05-10T09:50:14;100193.00;;;21.10
9119;BMP180;4594;50.994;7.126;2023-05-10T09:52:55;100195.00;;;21.10
9119;BMP180;4594;50.994;7.126;2023-05-10T09:55:44;100205.00;;;21.00
9119;BMP180;4594;50.994;7.126;2023-05-10T09:58:12;100180.00;;;21.00
9119;BMP180;4594;50.994;7.126;2023-05-10T10:00:41;100201.00;;;21.10
9119;BMP180;4594;50.994;7.126;2023-05-10T10:03:14;100193.00;;;21.10
9119;BMP180;4594;50.994;7.126;2023-05-10T10:05:42;100186.00;;;21.10
9119;BMP180;4594;50.994;7.126;2023-05-10T10:08:09;100187.00;;;21.20
9119;BMP180;4594;50.994;7.126;2023-05-10T10:10:35;100198.00;;;21.20
9119;BMP180;4594;50.994;7.126;2023-05-10T10:13:02;100202.00;;;21.20
9119;BMP180;4594;50.994;7.126;2023-05-10T10:15:28;100202.00;;;21.20
9119;BMP180;4594;50.994;7.126;2023-05-10T10:17:54;100200.00;;;21.30
9119;BMP180;4594;50.994;7.126;2023-05-10T10:20:22;100191.00;;;21.30
9119;BMP180;4594;50.994;7.126;2023-05-10T10:22:48;100206.00;;;21.30
9119;BMP180;4594;50.994;7.126;2023-05-10T10:25:16;100206.00;;;21.30
9119;BMP180;4594;50.994;7.126;2023-05-10T10:30:41;100222.00;;;21.20
9119;BMP180;4594;50.994;7.126;2023-05-10T10:36:03;100207.00;;;21.10
9119;BMP180;4594;50.994;7.126;2023-05-10T10:41:39;100215.00;;;21.10
9119;BMP180;4594;50.994;7.126;2023-05-10T10:49:49;100215.00;;;21.10
9119;BMP180;4594;50.994;7.126;2023-05-10T10:57:56;100201.00;;;21.50
9119;BMP180;4594;50.994;7.126;2023-05-10T11:00:38;100200.00;;;21.80
9119;BMP180;4594;50.994;7.126;2023-05-10T11:03:12;100205.00;;;22.10
9119;BMP180;4594;50.994;7.126;2023-05-10T11:05:48;100205.00;;;22.50
9119;BMP180;4594;50.994;7.126;2023-05-10T11:08:25;100215.00;;;22.90
9119;BMP180;4594;50.994;7.126;2023-05-10T11:13:39;100211.00;;;24.30
9119;BMP180;4594;50.994;7.126;2023-05-10T11:16:24;100221.00;;;25.30
9119;BMP180;4594;50.994;7.126;2023-05-10T11:19:04;100199.00;;;26.10
9119;BMP180;4594;50.994;7.126;2023-05-10T11:21:31;100217.00;;;26.60
9119;BMP180;4594;50.994;7.126;2023-05-10T11:24:00;100216.00;;;26.60
9119;BMP180;4594;50.994;7.126;2023-05-10T11:26:34;100231.00;;;26.60
9119;BMP180;4594;50.994;7.126;2023-05-10T11:29:01;100230.00;;;26.50
9119;BMP180;4594;50.994;7.126;2023-05-10T11:31:28;100233.00;;;26.60
9119;BMP180;4594;50.994;7.126;2023-05-10T11:33:57;100228.00;;;26.60
9119;BMP180;4594;50.994;7.126;2023-05-10T11:36:26;100235.00;;;26.50
9119;BMP180;4594;50.994;7.126;2023-05-10T11:38:54;100223.00;;;26.40
9119;BMP180;4594;50.994;7.126;2023-05-10T11:41:21;100246.00;;;26.20
9119;BMP180;4594;50.994;7.126;2023-05-10T11:43:50;100245.00;;;26.00
9119;BMP180;4594;50.994;7.126;2023-05-10T11:46:20;100243.00;;;25.70
9119;BMP180;4594;50.994;7.126;2023-05-10T11:48:50;100248.00;;;25.50
9119;BMP180;4594;50.994;7.126;2023-05-10T11:51:24;100249.00;;;25.20
9119;BMP180;4594;50.994;7.126;2023-05-10T11:53:53;100240.00;;;25.00
9119;BMP180;4594;50.994;7.126;2023-05-10T11:56:19;100238.00;;;24.80
9119;BMP180;4594;50.994;7.126;2023-05-10T11:58:57;100246.00;;;24.60
9119;BMP180;4594;50.994;7.126;2023-05-10T12:01:25;100231.00;;;24.50
9119;BMP180;4594;50.994;7.126;2023-05-10T12:03:54;100233.00;;;24.50
9119;BMP180;4594;50.994;7.126;2023-05-10T12:06:21;100257.00;;;24.50
9119;BMP180;4594;50.994;7.126;2023-05-10T12:08:49;100253.00;;;24.50
9119;BMP180;4594;50.994;7.126;2023-05-10T12:11:19;100245.00;;;24.50
9119;BMP180;4594;50.994;7.126;2023-05-10T12:13:47;100254.00;;;24.60
9119;BMP180;4594;50.994;7.126;2023-05-10T12:16:22;100233.00;;;24.60
9119;BMP180;4594;50.994;7.126;2023-05-10T12:18:53;100253.00;;;24.60
9119;BMP180;4594;50.994;7.126;2023-05-10T12:21:20;100254.00;;;24.50
9119;BMP180;4594;50.994;7.126;2023-05-10T12:23:54;100248.00;;;24.50
9119;BMP180;4594;50.994;7.126;2023-05-10T12:26:28;100237.00;;;24.40
9119;BMP180;4594;50.994;7.126;2023-05-10T12:28:55;100245.00;;;24.40
9119;BMP180;4594;50.994;7.126;2023-05-10T12:31:21;100257.00;;;24.30
9119;BMP180;4594;50.994;7.126;2023-05-10T12:33:47;100257.00;;;24.20
9119;BMP180;4594;50.994;7.126;2023-05-10T12:36:15;100263.00;;;24.20
9119;BMP180;4594;50.994;7.126;2023-05-10T12:38:45;100262.00;;;24.20
9119;BMP180;4594;50.994;7.126;2023-05-10T12:41:17;100266.00;;;24.10
9119;BMP180;4594;50.994;7.126;2023-05-10T12:43:44;100264.00;;;24.20
9119;BMP180;4594;50.994;7.126;2023-05-10T12:46:12;100263.00;;;24.20
9119;BMP180;4594;50.994;7.126;2023-05-10T12:48:40;100257.00;;;24.30
9119;BMP180;4594;50.994;7.126;2023-05-10T12:51:07;100264.00;;;24.50
9119;BMP180;4594;50.994;7.126;2023-05-10T12:53:38;100257.00;;;24.60
9119;BMP180;4594;50.994;7.126;2023-05-10T12:56:05;100252.00;;;24.70
9119;BMP180;4594;50.994;7.126;2023-05-10T12:58:31;100255.00;;;24.80
9119;BMP180;4594;50.994;7.126;2023-05-10T13:00:59;100257.00;;;24.90
9119;BMP180;4594;50.994;7.126;2023-05-10T13:03:24;100262.00;;;25.00
9119;BMP180;4594;50.994;7.126;2023-05-10T13:05:50;100264.00;;;25.00
9119;BMP180;4594;50.994;7.126;2023-05-10T13:08:16;100278.00;;;25.10
9119;BMP180;4594;50.994;7.126;2023-05-10T13:10:42;100267.00;;;25.10
9119;BMP180;4594;50.994;7.126;2023-05-10T13:13:07;100270.00;;;25.10
9119;BMP180;4594;50.994;7.126;2023-05-10T13:15:34;100269.00;;;25.10
9119;BMP180;4594;50.994;7.126;2023-05-10T13:18:00;100265.00;;;25.10
9119;BMP180;4594;50.994;7.126;2023-05-10T13:20:26;100266.00;;;25.10
9119;BMP180;4594;50.994;7.126;2023-05-10T13:22:52;100260.00;;;25.10
9119;BMP180;4594;50.994;7.126;2023-05-10T13:25:19;100260.00;;;25.10
9119;BMP180;4594;50.994;7.126;2023-05-10T13:27:45;100264.00;;;25.10
9119;BMP180;4594;50.994;7.126;2023-05-10T13:30:11;100264.00;;;25.10
9119;BMP180;4594;50.994;7.126;2023-05-10T13:32:37;100263.00;;;25.10
9119;BMP180;4594;50.994;7.126;2023-05-10T13:35:04;100257.00;;;25.00
9119;BMP180;4594;50.994;7.126;2023-05-10T13:37:31;100269.00;;;25.00
9119;BMP180;4594;50.994;7.126;2023-05-10T13:39:57;100259.00;;;25.00
9119;BMP180;4594;50.994;7.126;2023-05-10T13:42:23;100246.00;;;25.00
9119;BMP180;4594;50.994;7.126;2023-05-10T13:44:50;100261.00;;;25.00
9119;BMP180;4594;50.994;7.126;2023-05-10T13:47:16;100260.00;;;25.00
9119;BMP180;4594;50.994;7.126;2023-05-10T13:49:42;100262.00;;;25.00
9119;BMP180;4594;50.994;7.126;2023-05-10T13:52:07;100253.00;;;24.90
9119;BMP180;4594;50.994;7.126;2023-05-10T13:54:34;100263.00;;;24.90
9119;BMP180;4594;50.994;7.126;2023-05-10T13:56:59;100256.00;;;24.90
9119;BMP180;4594;50.994;7.126;2023-05-10T13:59:26;100263.00;;;24.90
9119;BMP180;4594;50.994;7.126;2023-05-10T14:01:51;100255.00;;;24.90
9119;BMP180;4594;50.994;7.126;2023-05-10T14:04:17;100256.00;;;24.90
9119;BMP180;4594;50.994;7.126;2023-05-10T14:06:43;100241.00;;;24.80
9119;BMP180;4594;50.994;7.126;2023-05-10T14:09:08;100240.00;;;24.70
9119;BMP180;4594;50.994;7.126;2023-05-10T14:11:34;100251.00;;;24.60
9119;BMP180;4594;50.994;7.126;2023-05-10T14:14:00;100256.00;;;24.50
9119;BMP180;4594;50.994;7.126;2023-05-10T14:16:25;100251.00;;;24.50
9119;BMP180;4594;50.994;7.126;2023-05-10T14:18:52;100261.00;;;24.40
9119;BMP180;4594;50.994;7.126;2023-05-10T14:21:18;100243.00;;;24.30
9119;BMP180;4594;50.994;7.126;2023-05-10T14:23:43;100255.00;;;24.30
9119;BMP180;4594;50.994;7.126;2023-05-10T14:26:09;100259.00;;;24.20
9119;BMP180;4594;50.994;7.126;2023-05-10T14:28:35;100247.00;;;24.20
9119;BMP180;4594;50.994;7.126;2023-05-10T14:31:00;100256.00;;;24.10
9119;BMP180;4594;50.994;7.126;2023-05-10T14:33:26;100256.00;;;24.00
9119;BMP180;4594;50.994;7.126;2023-05-10T14:35:53;100266.00;;;23.90
9119;BMP180;4594;50.994;7.126;2023-05-10T14:38:19;100258.00;;;23.80
9119;BMP180;4594;50.994;7.126;2023-05-10T14:40:45;100260.00;;;23.80
9119;BMP180;4594;50.994;7.126;2023-05-10T14:43:10;100253.00;;;23.80
9119;BMP180;4594;50.994;7.126;2023-05-10T14:45:36;100245.00;;;23.80
9119;BMP180;4594;50.994;7.126;2023-05-10T14:48:02;100259.00;;;23.70
9119;BMP180;4594;50.994;7.126;2023-05-10T14:50:30;100245.00;;;23.70
9119;BMP180;4594;50.994;7.126;2023-05-10T14:52:57;100258.00;;;23.60
9119;BMP180;4594;50.994;7.126;2023-05-10T14:55:23;100252.00;;;23.50
9119;BMP180;4594;50.994;7.126;2023-05-10T14:57:49;100259.00;;;23.50
9119;BMP180;4594;50.994;7.126;2023-05-10T15:00:16;100257.00;;;23.40
9119;BMP180;4594;50.994;7.126;2023-05-10T15:02:44;100247.00;;;23.40
9119;BMP180;4594;50.994;7.126;2023-05-10T15:05:09;100249.00;;;23.40
9119;BMP180;4594;50.994;7.126;2023-05-10T15:07:35;100243.00;;;23.30
9119;BMP180;4594;50.994;7.126;2023-05-10T15:10:00;100244.00;;;23.30
9119;BMP180;4594;50.994;7.126;2023-05-10T15:12:26;100255.00;;;23.30
9119;BMP180;4594;50.994;7.126;2023-05-10T15:14:52;100243.00;;;23.30